Churubusco, New York
Current Conditions -  °F | °C
As of 2:53 PM on Thursday 29 Jan 2015 (Local Time) from KPBG Reporting Station
Broken Clouds Broken Clouds  
Wind Chill: 12°   Ceiling: 11000
Heat Index: 25°   Visibility: 10mi
Dew Point: 11°   Wind: 16mph
Humidity: 55%   Direction: 150°SSE
Pressure: 29.99"   Gusts: NA
Location:  44.95°N, 73.93°W
Report Text: KPBG 291953Z AUTO 15014KT 10SM BKN110 M04/M12 A2999 RMK AO2 SLP161 T10391117
Loading
Personal Weather Stations






























Interactive Weather Map New forecast layout! Learn more

10-Day Weather Forecast

Advertisements
Track Severe Weather on mobile